KDTN/DTN METAR and TAF weather

Enter ICAO airport designator
Station Type Date Time Source
KDTN METAR 2021/05/10 23:53 UTC NOAA

KDTN 102353Z 04006G14KT 9SM OVC007 16/15 A2998 RMK AO2 LTG DSNT SE AND S SLP151 P0001 60026 T01560150 10172 20156 56020


Station Type Date Time Source
KDTN Decoded METAR 2021/05/10 23:53 UTC NOAA

SHREVEPORT DOWNTOWN AIRPORT, LA, United States (KDTN) 32-32N 093-45W 53M
May 10, 2021 - 07:53 PM EDT / 2021.05.10 2353 UTC
Wind: from the NE (040 degrees) at 7 MPH (6 KT) gusting to 16 MPH (14 KT):0
Visibility: 9 mile(s):0
Sky conditions: overcast
Weather: Lightning observed
Precipitation last hour: 0.01 inches
Temperature: 60.1 F (15.6 C)
Dew Point: 59.0 F (15.0 C)
Relative Humidity: 96%
Pressure (altimeter): 29.98 in. Hg (1015 hPa)
Pressure tendency: 0.06 inches (2.0 hPa) lower than three hours ago
ob: KDTN 102353Z 04006G14KT 9SM OVC007 16/15 A2998 RMK AO2 LTG DSNT SE AND S SLP151 P0001 60026 T01560150 10172 20156 56020
cycle: 0

Station Type Date Time Source
KDTN TAF UTC NOAA

Error!

Example: see airport list